sensor_id;sensor_type;location;lat;lon;timestamp;P1;durP1;ratioP1;P2;durP2;ratioP2
43511;SDS011;34054;52.100;5.116;2022-12-18T00:00:05;63.25;;;52.13;;
43511;SDS011;34054;52.100;5.116;2022-12-18T00:00:39;76.45;;;48.80;;
43511;SDS011;34054;52.100;5.116;2022-12-18T00:01:14;65.55;;;50.72;;
43511;SDS011;34054;52.100;5.116;2022-12-18T00:01:49;64.13;;;49.38;;
43511;SDS011;34054;52.100;5.116;2022-12-18T00:02:20;68.78;;;49.40;;
43511;SDS011;34054;52.100;5.116;2022-12-18T00:02:55;65.28;;;47.50;;
43511;SDS011;34054;52.100;5.116;2022-12-18T00:03:26;67.18;;;46.30;;
43511;SDS011;34054;52.100;5.116;2022-12-18T00:04:00;61.72;;;46.15;;
43511;SDS011;34054;52.100;5.116;2022-12-18T00:04:34;65.07;;;48.90;;
43511;SDS011;34054;52.100;5.116;2022-12-18T00:05:05;56.25;;;46.13;;
43511;SDS011;34054;52.100;5.116;2022-12-18T00:05:45;63.08;;;50.10;;
43511;SDS011;34054;52.100;5.116;2022-12-18T00:06:19;69.68;;;47.08;;
43511;SDS011;34054;52.100;5.116;2022-12-18T00:06:52;70.35;;;50.55;;
43511;SDS011;34054;52.100;5.116;2022-12-18T00:07:24;61.60;;;44.33;;
43511;SDS011;34054;52.100;5.116;2022-12-18T00:07:56;72.30;;;50.63;;
43511;SDS011;34054;52.100;5.116;2022-12-18T00:08:28;61.88;;;46.80;;
43511;SDS011;34054;52.100;5.116;2022-12-18T00:09:00;58.70;;;46.30;;
43511;SDS011;34054;52.100;5.116;2022-12-18T00:09:35;70.03;;;48.63;;
43511;SDS011;34054;52.100;5.116;2022-12-18T00:10:07;65.25;;;46.90;;
43511;SDS011;34054;52.100;5.116;2022-12-18T00:10:39;58.85;;;48.33;;
43511;SDS011;34054;52.100;5.116;2022-12-18T00:11:13;71.68;;;52.05;;
43511;SDS011;34054;52.100;5.116;2022-12-18T00:11:47;70.97;;;50.78;;
43511;SDS011;34054;52.100;5.116;2022-12-18T00:12:18;74.28;;;51.35;;
43511;SDS011;34054;52.100;5.116;2022-12-18T00:12:54;69.00;;;49.30;;
43511;SDS011;34054;52.100;5.116;2022-12-18T00:13:25;67.85;;;48.50;;
43511;SDS011;34054;52.100;5.116;2022-12-18T00:13:59;70.40;;;52.65;;
43511;SDS011;34054;52.100;5.116;2022-12-18T00:14:31;73.20;;;53.83;;
43511;SDS011;34054;52.100;5.116;2022-12-18T00:15:04;74.60;;;53.63;;
43511;SDS011;34054;52.100;5.116;2022-12-18T00:15:38;61.45;;;50.90;;
43511;SDS011;34054;52.100;5.116;2022-12-18T00:16:11;85.40;;;51.33;;
43511;SDS011;34054;52.100;5.116;2022-12-18T00:16:46;73.00;;;49.97;;
43511;SDS011;34054;52.100;5.116;2022-12-18T00:17:18;71.70;;;49.85;;
43511;SDS011;34054;52.100;5.116;2022-12-18T00:17:50;66.13;;;53.20;;
43511;SDS011;34054;52.100;5.116;2022-12-18T00:18:22;74.40;;;54.38;;
43511;SDS011;34054;52.100;5.116;2022-12-18T00:18:55;61.30;;;47.67;;
43511;SDS011;34054;52.100;5.116;2022-12-18T00:19:32;66.30;;;53.72;;
43511;SDS011;34054;52.100;5.116;2022-12-18T00:20:05;76.30;;;50.17;;
43511;SDS011;34054;52.100;5.116;2022-12-18T00:20:39;64.70;;;48.40;;
43511;SDS011;34054;52.100;5.116;2022-12-18T00:21:11;78.45;;;49.47;;
43511;SDS011;34054;52.100;5.116;2022-12-18T00:21:45;72.35;;;50.53;;
43511;SDS011;34054;52.100;5.116;2022-12-18T00:22:17;67.35;;;48.40;;
43511;SDS011;34054;52.100;5.116;2022-12-18T00:22:50;66.22;;;49.03;;
43511;SDS011;34054;52.100;5.116;2022-12-18T00:23:22;84.82;;;50.42;;
43511;SDS011;34054;52.100;5.116;2022-12-18T00:23:53;78.72;;;51.28;;
43511;SDS011;34054;52.100;5.116;2022-12-18T00:24:26;72.47;;;52.42;;
43511;SDS011;34054;52.100;5.116;2022-12-18T00:24:58;66.10;;;50.42;;
43511;SDS011;34054;52.100;5.116;2022-12-18T00:25:32;71.50;;;51.83;;
43511;SDS011;34054;52.100;5.116;2022-12-18T00:26:05;66.40;;;53.78;;
43511;SDS011;34054;52.100;5.116;2022-12-18T00:26:47;67.60;;;47.97;;
43511;SDS011;34054;52.100;5.116;2022-12-18T00:27:18;67.55;;;50.13;;
43511;SDS011;34054;52.100;5.116;2022-12-18T00:27:50;60.15;;;47.60;;
43511;SDS011;34054;52.100;5.116;2022-12-18T00:28:25;74.25;;;53.65;;
43511;SDS011;34054;52.100;5.116;2022-12-18T00:28:58;63.17;;;50.88;;
43511;SDS011;34054;52.100;5.116;2022-12-18T00:29:30;76.75;;;49.58;;
43511;SDS011;34054;52.100;5.116;2022-12-18T00:30:03;77.32;;;51.38;;
43511;SDS011;34054;52.100;5.116;2022-12-18T00:30:36;73.65;;;53.00;;
43511;SDS011;34054;52.100;5.116;2022-12-18T00:31:08;75.43;;;56.22;;
43511;SDS011;34054;52.100;5.116;2022-12-18T00:31:44;72.30;;;49.67;;
43511;SDS011;34054;52.100;5.116;2022-12-18T00:32:16;75.15;;;51.10;;
43511;SDS011;34054;52.100;5.116;2022-12-18T00:32:47;64.78;;;47.83;;
43511;SDS011;34054;52.100;5.116;2022-12-18T00:33:20;69.57;;;46.85;;
43511;SDS011;34054;52.100;5.116;2022-12-18T00:33:53;80.45;;;55.35;;
43511;SDS011;34054;52.100;5.116;2022-12-18T00:34:27;72.95;;;52.10;;
43511;SDS011;34054;52.100;5.116;2022-12-18T00:35:00;74.93;;;54.95;;
43511;SDS011;34054;52.100;5.116;2022-12-18T00:35:31;76.18;;;54.15;;
43511;SDS011;34054;52.100;5.116;2022-12-18T00:36:03;66.15;;;51.47;;
43511;SDS011;34054;52.100;5.116;2022-12-18T00:36:37;74.07;;;51.25;;
43511;SDS011;34054;52.100;5.116;2022-12-18T00:37:11;67.40;;;54.60;;
43511;SDS011;34054;52.100;5.116;2022-12-18T00:37:42;69.10;;;50.53;;
43511;SDS011;34054;52.100;5.116;2022-12-18T00:38:18;68.40;;;49.42;;
43511;SDS011;34054;52.100;5.116;2022-12-18T00:38:51;78.00;;;58.83;;
43511;SDS011;34054;52.100;5.116;2022-12-18T00:39:24;70.25;;;51.15;;
43511;SDS011;34054;52.100;5.116;2022-12-18T00:39:57;65.07;;;52.45;;
43511;SDS011;34054;52.100;5.116;2022-12-18T00:40:28;65.25;;;51.95;;
43511;SDS011;34054;52.100;5.116;2022-12-18T00:41:00;62.55;;;48.22;;
43511;SDS011;34054;52.100;5.116;2022-12-18T00:41:32;70.20;;;54.72;;
43511;SDS011;34054;52.100;5.116;2022-12-18T00:42:37;64.38;;;47.00;;
43511;SDS011;34054;52.100;5.116;2022-12-18T00:43:29;57.95;;;44.08;;
43511;SDS011;34054;52.100;5.116;2022-12-18T00:44:00;72.70;;;47.80;;
43511;SDS011;34054;52.100;5.116;2022-12-18T00:44:33;65.22;;;48.75;;
43511;SDS011;34054;52.100;5.116;2022-12-18T00:45:05;62.15;;;46.88;;
43511;SDS011;34054;52.100;5.116;2022-12-18T00:45:38;72.80;;;50.65;;
43511;SDS011;34054;52.100;5.116;2022-12-18T00:46:11;74.78;;;51.58;;
43511;SDS011;34054;52.100;5.116;2022-12-18T00:46:43;63.03;;;47.53;;
43511;SDS011;34054;52.100;5.116;2022-12-18T00:47:16;56.97;;;49.05;;
43511;SDS011;34054;52.100;5.116;2022-12-18T00:47:49;61.20;;;51.15;;
43511;SDS011;34054;52.100;5.116;2022-12-18T00:48:21;82.82;;;54.78;;
43511;SDS011;34054;52.100;5.116;2022-12-18T00:48:53;72.07;;;52.33;;
43511;SDS011;34054;52.100;5.116;2022-12-18T00:49:24;70.60;;;51.30;;
43511;SDS011;34054;52.100;5.116;2022-12-18T00:49:59;80.13;;;54.33;;
43511;SDS011;34054;52.100;5.116;2022-12-18T00:50:30;74.07;;;53.25;;
43511;SDS011;34054;52.100;5.116;2022-12-18T00:51:02;75.88;;;54.33;;
43511;SDS011;34054;52.100;5.116;2022-12-18T00:51:35;68.90;;;50.67;;
43511;SDS011;34054;52.100;5.116;2022-12-18T00:52:06;70.22;;;52.65;;
43511;SDS011;34054;52.100;5.116;2022-12-18T00:52:41;86.90;;;55.65;;
43511;SDS011;34054;52.100;5.116;2022-12-18T00:53:14;69.68;;;52.65;;
43511;SDS011;34054;52.100;5.116;2022-12-18T00:53:46;74.22;;;56.10;;
43511;SDS011;34054;52.100;5.116;2022-12-18T00:54:18;70.20;;;52.88;;
43511;SDS011;34054;52.100;5.116;2022-12-18T00:54:50;73.57;;;52.95;;
43511;SDS011;34054;52.100;5.116;2022-12-18T00:55:22;74.63;;;54.00;;
43511;SDS011;34054;52.100;5.116;2022-12-18T00:55:54;79.55;;;54.38;;
43511;SDS011;34054;52.100;5.116;2022-12-18T00:56:26;72.55;;;51.83;;
43511;SDS011;34054;52.100;5.116;2022-12-18T00:56:58;70.90;;;50.75;;
43511;SDS011;34054;52.100;5.116;2022-12-18T00:57:29;76.47;;;50.42;;
43511;SDS011;34054;52.100;5.116;2022-12-18T00:58:02;85.53;;;57.45;;
43511;SDS011;34054;52.100;5.116;2022-12-18T00:58:37;78.55;;;54.50;;
43511;SDS011;34054;52.100;5.116;2022-12-18T00:59:12;69.38;;;53.72;;
43511;SDS011;34054;52.100;5.116;2022-12-18T00:59:44;67.13;;;52.20;;
43511;SDS011;34054;52.100;5.116;2022-12-18T01:00:16;61.47;;;51.50;;
43511;SDS011;34054;52.100;5.116;2022-12-18T01:00:48;76.75;;;57.50;;
43511;SDS011;34054;52.100;5.116;2022-12-18T01:01:20;64.78;;;53.20;;
43511;SDS011;34054;52.100;5.116;2022-12-18T01:01:52;71.07;;;51.55;;
43511;SDS011;34054;52.100;5.116;2022-12-18T01:02:24;61.88;;;51.55;;
43511;SDS011;34054;52.100;5.116;2022-12-18T01:02:57;59.20;;;51.85;;
43511;SDS011;34054;52.100;5.116;2022-12-18T01:03:29;68.28;;;51.45;;
43511;SDS011;34054;52.100;5.116;2022-12-18T01:04:02;77.20;;;56.50;;
43511;SDS011;34054;52.100;5.116;2022-12-18T01:04:37;67.13;;;51.03;;
43511;SDS011;34054;52.100;5.116;2022-12-18T01:05:09;77.93;;;54.55;;
43511;SDS011;34054;52.100;5.116;2022-12-18T01:05:43;58.30;;;49.15;;
43511;SDS011;34054;52.100;5.116;2022-12-18T01:06:14;75.18;;;55.13;;
43511;SDS011;34054;52.100;5.116;2022-12-18T01:06:48;73.45;;;57.08;;
43511;SDS011;34054;52.100;5.116;2022-12-18T01:07:20;70.32;;;52.28;;
43511;SDS011;34054;52.100;5.116;2022-12-18T01:07:51;66.97;;;53.35;;
43511;SDS011;34054;52.100;5.116;2022-12-18T01:08:24;71.97;;;55.28;;
43511;SDS011;34054;52.100;5.116;2022-12-18T01:08:56;73.07;;;53.25;;
43511;SDS011;34054;52.100;5.116;2022-12-18T01:09:28;80.43;;;54.53;;
43511;SDS011;34054;52.100;5.116;2022-12-18T01:10:00;62.03;;;51.60;;
43511;SDS011;34054;52.100;5.116;2022-12-18T01:10:32;65.57;;;50.80;;
43511;SDS011;34054;52.100;5.116;2022-12-18T01:11:07;67.95;;;51.70;;
43511;SDS011;34054;52.100;5.116;2022-12-18T01:11:41;65.05;;;47.33;;
43511;SDS011;34054;52.100;5.116;2022-12-18T01:12:13;65.57;;;52.58;;
43511;SDS011;34054;52.100;5.116;2022-12-18T01:12:44;57.60;;;47.75;;
43511;SDS011;34054;52.100;5.116;2022-12-18T01:13:17;66.70;;;48.78;;
43511;SDS011;34054;52.100;5.116;2022-12-18T01:13:49;62.75;;;48.78;;
43511;SDS011;34054;52.100;5.116;2022-12-18T01:14:22;62.97;;;47.42;;
43511;SDS011;34054;52.100;5.116;2022-12-18T01:14:54;69.47;;;48.63;;
43511;SDS011;34054;52.100;5.116;2022-12-18T01:15:26;57.67;;;46.65;;
43511;SDS011;34054;52.100;5.116;2022-12-18T01:15:58;71.65;;;51.20;;
43511;SDS011;34054;52.100;5.116;2022-12-18T01:16:30;59.65;;;48.78;;
43511;SDS011;34054;52.100;5.116;2022-12-18T01:17:05;80.82;;;49.72;;
43511;SDS011;34054;52.100;5.116;2022-12-18T01:17:36;65.25;;;53.80;;
43511;SDS011;34054;52.100;5.116;2022-12-18T01:18:09;64.47;;;49.35;;
43511;SDS011;34054;52.100;5.116;2022-12-18T01:18:41;70.85;;;50.33;;
43511;SDS011;34054;52.100;5.116;2022-12-18T01:19:13;71.72;;;50.50;;
43511;SDS011;34054;52.100;5.116;2022-12-18T01:19:47;71.20;;;53.60;;
43511;SDS011;34054;52.100;5.116;2022-12-18T01:20:19;63.47;;;50.13;;
43511;SDS011;34054;52.100;5.116;2022-12-18T01:20:51;72.82;;;53.88;;
43511;SDS011;34054;52.100;5.116;2022-12-18T01:21:23;62.90;;;48.13;;
43511;SDS011;34054;52.100;5.116;2022-12-18T01:21:55;68.93;;;53.67;;
43511;SDS011;34054;52.100;5.116;2022-12-18T01:22:28;79.05;;;50.22;;
43511;SDS011;34054;52.100;5.116;2022-12-18T01:23:00;75.18;;;53.03;;
43511;SDS011;34054;52.100;5.116;2022-12-18T01:23:32;72.70;;;52.88;;
43511;SDS011;34054;52.100;5.116;2022-12-18T01:24:04;61.83;;;49.85;;
43511;SDS011;34054;52.100;5.116;2022-12-18T01:24:37;67.88;;;49.13;;
43511;SDS011;34054;52.100;5.116;2022-12-18T01:25:09;81.45;;;50.00;;
43511;SDS011;34054;52.100;5.116;2022-12-18T01:25:41;64.03;;;46.75;;
43511;SDS011;34054;52.100;5.116;2022-12-18T01:26:14;77.40;;;52.50;;
43511;SDS011;34054;52.100;5.116;2022-12-18T01:26:47;65.35;;;51.40;;
43511;SDS011;34054;52.100;5.116;2022-12-18T01:27:19;69.68;;;49.65;;
43511;SDS011;34054;52.100;5.116;2022-12-18T01:27:51;65.07;;;50.13;;
43511;SDS011;34054;52.100;5.116;2022-12-18T01:28:23;63.38;;;49.13;;
43511;SDS011;34054;52.100;5.116;2022-12-18T01:28:55;73.65;;;52.17;;
43511;SDS011;34054;52.100;5.116;2022-12-18T01:29:29;62.08;;;48.15;;
43511;SDS011;34054;52.100;5.116;2022-12-18T01:30:00;69.95;;;48.75;;
43511;SDS011;34054;52.100;5.116;2022-12-18T01:30:32;64.90;;;49.33;;
43511;SDS011;34054;52.100;5.116;2022-12-18T01:31:15;66.15;;;51.05;;
43511;SDS011;34054;52.100;5.116;2022-12-18T01:31:54;74.00;;;51.05;;
43511;SDS011;34054;52.100;5.116;2022-12-18T01:32:29;70.78;;;51.65;;
43511;SDS011;34054;52.100;5.116;2022-12-18T01:33:03;77.32;;;51.58;;
43511;SDS011;34054;52.100;5.116;2022-12-18T01:33:36;75.40;;;52.53;;
43511;SDS011;34054;52.100;5.116;2022-12-18T01:34:08;70.22;;;49.38;;
43511;SDS011;34054;52.100;5.116;2022-12-18T01:34:42;62.78;;;48.65;;
43511;SDS011;34054;52.100;5.116;2022-12-18T01:35:15;74.65;;;53.50;;
43511;SDS011;34054;52.100;5.116;2022-12-18T01:35:46;78.47;;;52.47;;
43511;SDS011;34054;52.100;5.116;2022-12-18T01:36:20;78.55;;;55.10;;
43511;SDS011;34054;52.100;5.116;2022-12-18T01:36:54;63.65;;;53.05;;
43511;SDS011;34054;52.100;5.116;2022-12-18T01:37:26;72.60;;;50.60;;
43511;SDS011;34054;52.100;5.116;2022-12-18T01:37:59;63.95;;;49.35;;
43511;SDS011;34054;52.100;5.116;2022-12-18T01:38:30;69.18;;;57.33;;
43511;SDS011;34054;52.100;5.116;2022-12-18T01:39:03;74.55;;;55.53;;
43511;SDS011;34054;52.100;5.116;2022-12-18T01:39:38;61.58;;;52.15;;
43511;SDS011;34054;52.100;5.116;2022-12-18T01:40:10;69.47;;;53.70;;
43511;SDS011;34054;52.100;5.116;2022-12-18T01:40:42;86.25;;;57.00;;
43511;SDS011;34054;52.100;5.116;2022-12-18T01:41:16;60.33;;;50.97;;
43511;SDS011;34054;52.100;5.116;2022-12-18T01:41:50;65.95;;;50.72;;
43511;SDS011;34054;52.100;5.116;2022-12-18T01:42:34;64.53;;;53.70;;
43511;SDS011;34054;52.100;5.116;2022-12-18T01:43:08;67.22;;;53.20;;
43511;SDS011;34054;52.100;5.116;2022-12-18T01:43:41;69.32;;;53.33;;
43511;SDS011;34054;52.100;5.116;2022-12-18T01:45:32;56.45;;;48.95;;
43511;SDS011;34054;52.100;5.116;2022-12-18T01:46:03;64.00;;;50.22;;
43511;SDS011;34054;52.100;5.116;2022-12-18T01:46:35;63.70;;;45.67;;
43511;SDS011;34054;52.100;5.116;2022-12-18T01:47:07;66.13;;;47.55;;
43511;SDS011;34054;52.100;5.116;2022-12-18T01:47:40;78.72;;;50.45;;
43511;SDS011;34054;52.100;5.116;2022-12-18T01:48:16;64.47;;;50.38;;
43511;SDS011;34054;52.100;5.116;2022-12-18T01:48:53;68.88;;;51.90;;
43511;SDS011;34054;52.100;5.116;2022-12-18T01:49:29;62.45;;;46.40;;
43511;SDS011;34054;52.100;5.116;2022-12-18T01:50:02;61.28;;;47.28;;
43511;SDS011;34054;52.100;5.116;2022-12-18T01:50:42;80.40;;;49.72;;
43511;SDS011;34054;52.100;5.116;2022-12-18T01:51:15;66.32;;;50.45;;
43511;SDS011;34054;52.100;5.116;2022-12-18T01:51:48;62.05;;;48.28;;
43511;SDS011;34054;52.100;5.116;2022-12-18T01:52:20;65.50;;;50.15;;
43511;SDS011;34054;52.100;5.116;2022-12-18T01:52:56;78.65;;;46.70;;
43511;SDS011;34054;52.100;5.116;2022-12-18T01:53:34;71.68;;;46.30;;
43511;SDS011;34054;52.100;5.116;2022-12-18T01:54:08;63.35;;;48.45;;
43511;SDS011;34054;52.100;5.116;2022-12-18T01:54:39;67.85;;;48.78;;
43511;SDS011;34054;52.100;5.116;2022-12-18T01:55:11;71.20;;;49.70;;
43511;SDS011;34054;52.100;5.116;2022-12-18T01:55:50;66.78;;;51.42;;
43511;SDS011;34054;52.100;5.116;2022-12-18T01:56:25;70.18;;;50.13;;
43511;SDS011;34054;52.100;5.116;2022-12-18T01:56:59;67.10;;;49.15;;
43511;SDS011;34054;52.100;5.116;2022-12-18T01:57:31;57.58;;;46.60;;
43511;SDS011;34054;52.100;5.116;2022-12-18T01:58:04;77.97;;;55.70;;
43511;SDS011;34054;52.100;5.116;2022-12-18T01:58:37;63.72;;;52.45;;
43511;SDS011;34054;52.100;5.116;2022-12-18T01:59:18;76.13;;;50.33;;
43511;SDS011;34054;52.100;5.116;2022-12-18T01:59:52;59.13;;;48.38;;
43511;SDS011;34054;52.100;5.116;2022-12-18T02:00:27;68.70;;;48.05;;
43511;SDS011;34054;52.100;5.116;2022-12-18T02:01:01;74.40;;;46.75;;
43511;SDS011;34054;52.100;5.116;2022-12-18T02:01:33;63.17;;;47.22;;
43511;SDS011;34054;52.100;5.116;2022-12-18T02:02:06;54.40;;;47.00;;
43511;SDS011;34054;52.100;5.116;2022-12-18T02:02:40;83.35;;;54.05;;
43511;SDS011;34054;52.100;5.116;2022-12-18T02:03:14;66.82;;;51.40;;
43511;SDS011;34054;52.100;5.116;2022-12-18T02:03:45;57.85;;;47.97;;
43511;SDS011;34054;52.100;5.116;2022-12-18T02:04:19;69.00;;;49.15;;
43511;SDS011;34054;52.100;5.116;2022-12-18T02:04:52;74.63;;;52.85;;
43511;SDS011;34054;52.100;5.116;2022-12-18T02:05:26;65.90;;;47.75;;
43511;SDS011;34054;52.100;5.116;2022-12-18T02:06:14;54.42;;;45.38;;
43511;SDS011;34054;52.100;5.116;2022-12-18T02:06:53;74.60;;;51.42;;
43511;SDS011;34054;52.100;5.116;2022-12-18T02:07:37;71.15;;;56.63;;
43511;SDS011;34054;52.100;5.116;2022-12-18T02:08:25;78.00;;;54.88;;
43511;SDS011;34054;52.100;5.116;2022-12-18T02:09:07;78.47;;;54.42;;
43511;SDS011;34054;52.100;5.116;2022-12-18T02:09:47;69.25;;;50.10;;
43511;SDS011;34054;52.100;5.116;2022-12-18T02:10:29;77.30;;;52.60;;
43511;SDS011;34054;52.100;5.116;2022-12-18T02:11:17;72.70;;;51.83;;
43511;SDS011;34054;52.100;5.116;2022-12-18T02:12:04;66.30;;;52.60;;
43511;SDS011;34054;52.100;5.116;2022-12-18T02:12:48;73.18;;;51.97;;
43511;SDS011;34054;52.100;5.116;2022-12-18T02:13:35;63.35;;;51.67;;
43511;SDS011;34054;52.100;5.116;2022-12-18T02:14:18;72.88;;;52.95;;
43511;SDS011;34054;52.100;5.116;2022-12-18T02:15:05;70.57;;;50.80;;
43511;SDS011;34054;52.100;5.116;2022-12-18T02:15:48;65.40;;;54.30;;
43511;SDS011;34054;52.100;5.116;2022-12-18T02:16:33;67.43;;;52.85;;
43511;SDS011;34054;52.100;5.116;2022-12-18T02:17:15;69.25;;;51.83;;
43511;SDS011;34054;52.100;5.116;2022-12-18T02:17:53;68.20;;;52.00;;
43511;SDS011;34054;52.100;5.116;2022-12-18T02:18:31;60.47;;;48.28;;
43511;SDS011;34054;52.100;5.116;2022-12-18T02:19:15;60.10;;;49.38;;
43511;SDS011;34054;52.100;5.116;2022-12-18T02:20:11;70.90;;;46.50;;
43511;SDS011;34054;52.100;5.116;2022-12-18T02:20:52;60.20;;;49.85;;
43511;SDS011;34054;52.100;5.116;2022-12-18T02:21:40;65.30;;;50.42;;
43511;SDS011;34054;52.100;5.116;2022-12-18T02:22:27;65.32;;;49.47;;
43511;SDS011;34054;52.100;5.116;2022-12-18T02:23:16;68.13;;;49.78;;
43511;SDS011;34054;52.100;5.116;2022-12-18T02:24:15;66.68;;;47.80;;
43511;SDS011;34054;52.100;5.116;2022-12-18T02:25:06;61.80;;;51.63;;
43511;SDS011;34054;52.100;5.116;2022-12-18T02:26:06;66.30;;;48.55;;
43511;SDS011;34054;52.100;5.116;2022-12-18T02:26:48;65.63;;;52.00;;
43511;SDS011;34054;52.100;5.116;2022-12-18T02:27:27;64.22;;;47.40;;
43511;SDS011;34054;52.100;5.116;2022-12-18T02:28:05;62.45;;;48.05;;
43511;SDS011;34054;52.100;5.116;2022-12-18T02:28:44;61.33;;;44.78;;
43511;SDS011;34054;52.100;5.116;2022-12-18T02:29:24;60.05;;;43.72;;
43511;SDS011;34054;52.100;5.116;2022-12-18T02:30:02;51.78;;;39.67;;
43511;SDS011;34054;52.100;5.116;2022-12-18T02:30:38;58.15;;;44.28;;
43511;SDS011;34054;52.100;5.116;2022-12-18T02:31:14;64.50;;;39.90;;
43511;SDS011;34054;52.100;5.116;2022-12-18T02:31:52;51.00;;;45.08;;
43511;SDS011;34054;52.100;5.116;2022-12-18T02:32:30;67.60;;;41.63;;
43511;SDS011;34054;52.100;5.116;2022-12-18T02:33:07;46.88;;;41.58;;
43511;SDS011;34054;52.100;5.116;2022-12-18T02:33:43;56.67;;;44.63;;
43511;SDS011;34054;52.100;5.116;2022-12-18T02:34:18;65.43;;;46.63;;
43511;SDS011;34054;52.100;5.116;2022-12-18T02:34:53;54.75;;;46.90;;
43511;SDS011;34054;52.100;5.116;2022-12-18T02:35:29;59.42;;;46.05;;
43511;SDS011;34054;52.100;5.116;2022-12-18T02:36:03;60.45;;;48.80;;
43511;SDS011;34054;52.100;5.116;2022-12-18T02:36:40;59.30;;;47.00;;
43511;SDS011;34054;52.100;5.116;2022-12-18T02:37:16;53.53;;;41.05;;
43511;SDS011;34054;52.100;5.116;2022-12-18T02:37:54;68.70;;;45.75;;
43511;SDS011;34054;52.100;5.116;2022-12-18T02:38:27;58.70;;;46.45;;
43511;SDS011;34054;52.100;5.116;2022-12-18T02:39:02;59.28;;;42.58;;
43511;SDS011;34054;52.100;5.116;2022-12-18T02:39:39;56.67;;;40.70;;
43511;SDS011;34054;52.100;5.116;2022-12-18T02:40:15;62.15;;;48.55;;
43511;SDS011;34054;52.100;5.116;2022-12-18T02:40:48;59.63;;;48.47;;
43511;SDS011;34054;52.100;5.116;2022-12-18T02:41:26;59.97;;;46.58;;
43511;SDS011;34054;52.100;5.116;2022-12-18T02:41:59;62.85;;;45.72;;
43511;SDS011;34054;52.100;5.116;2022-12-18T02:42:38;55.72;;;48.05;;
43511;SDS011;34054;52.100;5.116;2022-12-18T02:43:11;67.82;;;47.33;;
43511;SDS011;34054;52.100;5.116;2022-12-18T02:43:53;57.28;;;44.38;;
43511;SDS011;34054;52.100;5.116;2022-12-18T02:44:27;59.63;;;42.50;;
43511;SDS011;34054;52.100;5.116;2022-12-18T02:45:00;54.33;;;44.28;;
43511;SDS011;34054;52.100;5.116;2022-12-18T02:45:32;61.72;;;48.78;;
43511;SDS011;34054;52.100;5.116;2022-12-18T02:47:00;59.38;;;44.95;;
43511;SDS011;34054;52.100;5.116;2022-12-18T02:47:36;56.25;;;43.83;;
43511;SDS011;34054;52.100;5.116;2022-12-18T02:48:11;52.17;;;38.92;;
43511;SDS011;34054;52.100;5.116;2022-12-18T02:48:44;63.97;;;43.10;;
43511;SDS011;34054;52.100;5.116;2022-12-18T02:49:21;64.50;;;46.60;;
43511;SDS011;34054;52.100;5.116;2022-12-18T02:50:07;53.78;;;41.85;;
43511;SDS011;34054;52.100;5.116;2022-12-18T02:50:51;43.70;;;39.17;;
43511;SDS011;34054;52.100;5.116;2022-12-18T02:51:36;60.67;;;42.78;;
43511;SDS011;34054;52.100;5.116;2022-12-18T02:52:24;57.00;;;42.13;;
43511;SDS011;34054;52.100;5.116;2022-12-18T02:53:09;51.13;;;40.58;;
43511;SDS011;34054;52.100;5.116;2022-12-18T02:53:48;54.80;;;38.97;;
43511;SDS011;34054;52.100;5.116;2022-12-18T02:54:37;57.13;;;42.60;;
43511;SDS011;34054;52.100;5.116;2022-12-18T02:55:28;58.08;;;40.97;;
43511;SDS011;34054;52.100;5.116;2022-12-18T02:56:18;49.55;;;41.75;;
43511;SDS011;34054;52.100;5.116;2022-12-18T02:56:58;54.86;;;38.80;;
43511;SDS011;34054;52.100;5.116;2022-12-18T02:57:45;50.25;;;37.85;;
43511;SDS011;34054;52.100;5.116;2022-12-18T02:58:26;57.78;;;39.20;;
43511;SDS011;34054;52.100;5.116;2022-12-18T02:59:12;51.85;;;39.95;;
43511;SDS011;34054;52.100;5.116;2022-12-18T02:59:55;51.28;;;38.63;;
43511;SDS011;34054;52.100;5.116;2022-12-18T03:00:35;42.97;;;36.78;;
43511;SDS011;34054;52.100;5.116;2022-12-18T03:01:13;42.58;;;36.13;;
43511;SDS011;34054;52.100;5.116;2022-12-18T03:01:54;54.45;;;42.72;;
43511;SDS011;34054;52.100;5.116;2022-12-18T03:02:35;50.42;;;36.97;;
43511;SDS011;34054;52.100;5.116;2022-12-18T03:03:18;51.67;;;39.13;;
43511;SDS011;34054;52.100;5.116;2022-12-18T03:03:57;61.78;;;39.95;;
43511;SDS011;34054;52.100;5.116;2022-12-18T03:04:39;53.35;;;37.47;;
43511;SDS011;34054;52.100;5.116;2022-12-18T03:05:21;50.55;;;41.65;;
43511;SDS011;34054;52.100;5.116;2022-12-18T03:06:00;42.65;;;38.22;;
43511;SDS011;34054;52.100;5.116;2022-12-18T03:06:40;54.35;;;38.92;;
43511;SDS011;34054;52.100;5.116;2022-12-18T03:07:18;55.05;;;38.97;;
43511;SDS011;34054;52.100;5.116;2022-12-18T03:07:59;50.20;;;39.95;;
43511;SDS011;34054;52.100;5.116;2022-12-18T03:08:41;50.90;;;36.20;;
43511;SDS011;34054;52.100;5.116;2022-12-18T03:09:58;51.17;;;40.25;;
43511;SDS011;34054;52.100;5.116;2022-12-18T03:10:34;47.20;;;39.88;;
43511;SDS011;34054;52.100;5.116;2022-12-18T03:11:12;45.08;;;40.30;;
43511;SDS011;34054;52.100;5.116;2022-12-18T03:12:10;55.72;;;36.53;;
43511;SDS011;34054;52.100;5.116;2022-12-18T03:12:56;44.38;;;38.83;;
43511;SDS011;34054;52.100;5.116;2022-12-18T03:13:36;48.53;;;39.22;;
43511;SDS011;34054;52.100;5.116;2022-12-18T03:14:15;53.35;;;39.42;;
43511;SDS011;34054;52.100;5.116;2022-12-18T03:14:53;52.42;;;38.50;;
43511;SDS011;34054;52.100;5.116;2022-12-18T03:15:31;60.97;;;39.30;;
43511;SDS011;34054;52.100;5.116;2022-12-18T03:16:10;50.95;;;39.42;;
43511;SDS011;34054;52.100;5.116;2022-12-18T03:16:49;52.88;;;41.80;;
43511;SDS011;34054;52.100;5.116;2022-12-18T03:17:26;46.03;;;37.53;;
43511;SDS011;34054;52.100;5.116;2022-12-18T03:18:03;46.90;;;37.67;;
43511;SDS011;34054;52.100;5.116;2022-12-18T03:18:42;50.25;;;40.28;;
43511;SDS011;34054;52.100;5.116;2022-12-18T03:19:22;42.45;;;35.45;;
43511;SDS011;34054;52.100;5.116;2022-12-18T03:20:02;40.97;;;31.85;;
43511;SDS011;34054;52.100;5.116;2022-12-18T03:20:41;42.50;;;33.13;;
43511;SDS011;34054;52.100;5.116;2022-12-18T03:21:21;46.50;;;38.75;;
43511;SDS011;34054;52.100;5.116;2022-12-18T03:22:04;61.55;;;42.63;;
43511;SDS011;34054;52.100;5.116;2022-12-18T03:22:38;39.45;;;31.65;;
43511;SDS011;34054;52.100;5.116;2022-12-18T03:23:18;50.50;;;40.10;;
43511;SDS011;34054;52.100;5.116;2022-12-18T03:24:31;39.60;;;35.45;;
43511;SDS011;34054;52.100;5.116;2022-12-18T03:25:10;43.22;;;34.30;;
43511;SDS011;34054;52.100;5.116;2022-12-18T03:25:47;51.78;;;34.53;;
43511;SDS011;34054;52.100;5.116;2022-12-18T03:26:26;52.95;;;34.60;;
43511;SDS011;34054;52.100;5.116;2022-12-18T03:27:01;39.65;;;32.45;;
43511;SDS011;34054;52.100;5.116;2022-12-18T03:27:40;41.60;;;35.13;;
43511;SDS011;34054;52.100;5.116;2022-12-18T03:28:20;44.35;;;36.38;;
43511;SDS011;34054;52.100;5.116;2022-12-18T03:28:56;42.13;;;35.47;;
43511;SDS011;34054;52.100;5.116;2022-12-18T03:29:34;48.42;;;36.42;;
43511;SDS011;34054;52.100;5.116;2022-12-18T03:30:13;43.53;;;35.38;;
43511;SDS011;34054;52.100;5.116;2022-12-18T03:30:47;38.05;;;30.52;;
43511;SDS011;34054;52.100;5.116;2022-12-18T03:31:27;38.10;;;33.50;;
43511;SDS011;34054;52.100;5.116;2022-12-18T03:32:04;41.58;;;33.83;;
43511;SDS011;34054;52.100;5.116;2022-12-18T03:32:44;39.42;;;33.58;;
43511;SDS011;34054;52.100;5.116;2022-12-18T03:33:25;46.08;;;37.72;;